createdAt,value
2022-10-25T00:00:05.380Z,86.12
2022-10-25T00:01:05.408Z,86.12
2022-10-25T00:02:05.487Z,86.12
2022-10-25T00:03:05.407Z,86.12
2022-10-25T00:04:05.382Z,86.12
2022-10-25T00:05:05.381Z,86.12
2022-10-25T00:06:05.371Z,86.12
2022-10-25T00:07:05.379Z,86.12
2022-10-25T00:08:05.372Z,86.12
2022-10-25T00:09:05.371Z,86.12
2022-10-25T00:10:05.396Z,86.12
2022-10-25T00:11:05.373Z,86.12
2022-10-25T00:12:05.379Z,86.12
2022-10-25T00:13:05.374Z,86.12
2022-10-25T00:14:05.373Z,86.12
2022-10-25T00:15:05.371Z,86.12
2022-10-25T00:16:05.377Z,86.12
2022-10-25T00:17:05.375Z,86.12
2022-10-25T00:18:05.385Z,86.12
2022-10-25T00:19:05.414Z,86.12
2022-10-25T00:20:05.384Z,86.12
2022-10-25T00:21:05.379Z,86.12
2022-10-25T00:22:05.381Z,86.12
2022-10-25T00:23:05.386Z,86.12
2022-10-25T00:24:05.372Z,86.12
2022-10-25T00:25:05.384Z,86.12
2022-10-25T00:26:05.392Z,86.12
2022-10-25T00:27:05.389Z,86.12
2022-10-25T00:28:05.385Z,86.12
2022-10-25T00:29:05.386Z,86.12
2022-10-25T00:30:05.393Z,86.12
2022-10-25T00:31:05.382Z,86.12
2022-10-25T00:32:05.383Z,86.12
2022-10-25T00:33:05.379Z,86.12
2022-10-25T00:34:05.382Z,86.12
2022-10-25T00:35:05.415Z,86.12
2022-10-25T00:36:05.385Z,86.12
2022-10-25T00:37:05.386Z,86.12
2022-10-25T00:38:05.368Z,86.12
2022-10-25T00:39:05.382Z,86.12
2022-10-25T00:40:05.390Z,86.12
2022-10-25T00:41:05.393Z,86.12
2022-10-25T00:42:05.388Z,86.12
2022-10-25T00:43:05.386Z,86.12
2022-10-25T00:44:05.383Z,86.12
2022-10-25T00:45:05.387Z,86.12
2022-10-25T00:46:05.397Z,86.12
2022-10-25T00:47:05.384Z,86.12
2022-10-25T00:48:05.384Z,86.12
2022-10-25T00:49:05.399Z,86.12
2022-10-25T00:50:05.376Z,86.12
2022-10-25T00:51:05.409Z,86.12
2022-10-25T00:52:05.387Z,86.12
2022-10-25T00:53:05.394Z,86.12
2022-10-25T00:54:05.386Z,86.12
2022-10-25T00:55:05.391Z,86.12
2022-10-25T00:56:05.394Z,86.12
2022-10-25T00:57:05.385Z,86.12
2022-10-25T00:58:05.393Z,86.12
2022-10-25T00:59:05.395Z,86.12
2022-10-25T01:00:05.395Z,86.12
2022-10-25T01:01:05.438Z,86.12
2022-10-25T01:02:05.491Z,86.12
2022-10-25T01:03:05.384Z,86.12
2022-10-25T01:04:05.394Z,86.12
2022-10-25T01:05:05.395Z,86.12
2022-10-25T01:06:05.394Z,86.12
2022-10-25T01:07:05.424Z,86.12
2022-10-25T01:08:05.395Z,86.12
2022-10-25T01:09:05.400Z,86.12
2022-10-25T01:10:05.396Z,86.12
2022-10-25T01:11:05.407Z,86.12
2022-10-25T01:12:05.405Z,86.12
2022-10-25T01:13:05.392Z,86.12
2022-10-25T01:14:05.394Z,86.12
2022-10-25T01:15:05.404Z,86.12
2022-10-25T01:16:05.397Z,86.12
2022-10-25T01:17:05.395Z,86.12
2022-10-25T01:18:05.400Z,86.12
2022-10-25T01:19:05.405Z,86.12
2022-10-25T01:20:05.420Z,86.12
2022-10-25T01:21:05.408Z,86.12
2022-10-25T01:22:05.399Z,86.12
2022-10-25T01:23:05.428Z,86.12
2022-10-25T01:24:05.407Z,86.12
2022-10-25T01:25:05.402Z,86.12
2022-10-25T01:26:05.403Z,86.12
2022-10-25T01:27:05.406Z,86.12
2022-10-25T01:28:05.425Z,86.12
2022-10-25T01:29:05.414Z,86.12
2022-10-25T01:30:05.407Z,86.12
2022-10-25T01:31:05.411Z,86.12
2022-10-25T01:32:05.414Z,86.12
2022-10-25T01:33:05.415Z,86.12
2022-10-25T01:34:05.408Z,86.12
2022-10-25T01:35:05.404Z,86.12
2022-10-25T01:36:05.445Z,86.12
2022-10-25T01:37:05.410Z,86.12
2022-10-25T01:38:05.408Z,86.12
2022-10-25T01:39:05.435Z,86.12
2022-10-25T01:40:05.412Z,86.12
2022-10-25T01:41:05.417Z,86.12
2022-10-25T01:42:05.420Z,86.12
2022-10-25T01:43:05.415Z,86.12
2022-10-25T01:44:05.417Z,86.12
2022-10-25T01:45:05.418Z,86.12
2022-10-25T01:46:05.408Z,86.12
2022-10-25T01:47:05.412Z,86.12
2022-10-25T01:48:05.413Z,86.12
2022-10-25T01:49:05.421Z,86.12
2022-10-25T01:50:05.423Z,86.12
2022-10-25T01:51:05.411Z,86.12
2022-10-25T01:52:05.416Z,86.12
2022-10-25T01:53:05.421Z,86.12
2022-10-25T01:54:05.420Z,86.12
2022-10-25T01:55:05.430Z,86.12
2022-10-25T01:56:05.418Z,86.12
2022-10-25T01:57:05.415Z,86.12
2022-10-25T01:58:05.424Z,86.12
2022-10-25T01:59:05.426Z,86.12
2022-10-25T02:00:05.412Z,86.12
2022-10-25T02:01:05.509Z,86.12
2022-10-25T02:02:05.425Z,86.12
2022-10-25T02:03:05.414Z,86.12
2022-10-25T02:04:05.416Z,86.12
2022-10-25T02:05:05.418Z,86.12
2022-10-25T02:06:05.412Z,86.12
2022-10-25T02:07:05.412Z,86.12
2022-10-25T02:08:05.427Z,86.12
2022-10-25T02:09:05.415Z,86.12
2022-10-25T02:11:05.444Z,86.12
2022-10-25T02:12:05.418Z,86.12
2022-10-25T02:13:05.417Z,86.12
2022-10-25T02:14:05.419Z,86.12
2022-10-25T02:15:05.415Z,86.12
2022-10-25T02:16:05.418Z,86.12
2022-10-25T02:17:05.420Z,86.12
2022-10-25T02:18:05.422Z,86.12
2022-10-25T02:19:05.420Z,86.12
2022-10-25T02:20:05.424Z,86.12
2022-10-25T02:21:05.424Z,86.12
2022-10-25T02:22:05.433Z,86.12
2022-10-25T02:23:05.418Z,86.12
2022-10-25T02:24:05.425Z,86.12
2022-10-25T02:25:05.416Z,86.12
2022-10-25T02:26:05.431Z,86.12
2022-10-25T02:27:05.443Z,86.12
2022-10-25T02:28:05.435Z,86.12
2022-10-25T02:29:05.427Z,86.12
2022-10-25T02:30:05.428Z,86.12
2022-10-25T02:31:05.425Z,86.12
2022-10-25T02:32:05.441Z,86.12
2022-10-25T02:33:05.426Z,86.12
2022-10-25T02:34:05.433Z,86.12
2022-10-25T02:35:05.478Z,86.12
2022-10-25T02:36:05.431Z,86.12
2022-10-25T02:37:05.441Z,86.12
2022-10-25T02:38:05.440Z,86.12
2022-10-25T02:39:05.435Z,86.12
2022-10-25T02:40:05.426Z,86.12
2022-10-25T02:41:05.435Z,86.12
2022-10-25T02:42:05.443Z,86.12
2022-10-25T02:43:05.457Z,86.12
2022-10-25T02:44:05.438Z,86.12
2022-10-25T02:45:05.441Z,86.12
2022-10-25T02:46:05.443Z,86.12
2022-10-25T02:47:05.438Z,86.12
2022-10-25T02:48:05.438Z,86.12
2022-10-25T02:49:05.436Z,86.12
2022-10-25T02:50:05.453Z,86.12
2022-10-25T02:51:05.449Z,86.12
2022-10-25T02:52:05.444Z,86.12
2022-10-25T02:53:05.441Z,86.12
2022-10-25T02:54:05.446Z,86.12
2022-10-25T02:55:05.446Z,86.12
2022-10-25T02:56:05.442Z,86.12
2022-10-25T02:57:05.444Z,86.12
2022-10-25T02:58:05.443Z,86.12
2022-10-25T02:59:05.469Z,86.12
2022-10-25T03:00:05.482Z,86.12
2022-10-25T03:01:05.599Z,86.12
2022-10-25T03:02:05.452Z,86.12
2022-10-25T03:03:05.444Z,86.12
2022-10-25T03:04:05.444Z,86.12
2022-10-25T03:05:05.452Z,86.12
2022-10-25T03:06:05.443Z,86.12
2022-10-25T03:07:05.445Z,86.12
2022-10-25T03:08:05.455Z,86.12
2022-10-25T03:09:05.452Z,86.12
2022-10-25T03:10:05.443Z,86.12
2022-10-25T03:11:05.454Z,86.12
2022-10-25T03:12:05.458Z,86.12
2022-10-25T03:13:05.457Z,86.12
2022-10-25T03:14:05.447Z,86.12
2022-10-25T03:15:05.469Z,86.12
2022-10-25T03:16:05.455Z,86.12
2022-10-25T03:17:05.448Z,86.12
2022-10-25T03:18:05.460Z,86.12
2022-10-25T03:19:05.461Z,86.12
2022-10-25T03:20:05.451Z,86.12
2022-10-25T03:21:05.461Z,86.12
2022-10-25T03:22:05.457Z,86.12
2022-10-25T03:23:05.462Z,86.12
2022-10-25T03:24:05.460Z,86.12
2022-10-25T03:25:05.546Z,86.12
2022-10-25T03:26:05.455Z,86.12
2022-10-25T03:27:05.466Z,86.12
2022-10-25T03:28:05.464Z,86.12
2022-10-25T03:29:05.465Z,86.12
2022-10-25T03:30:05.472Z,86.12
2022-10-25T03:31:05.499Z,86.12
2022-10-25T03:32:05.470Z,86.12
2022-10-25T03:33:05.464Z,86.12
2022-10-25T03:34:05.468Z,86.12
2022-10-25T03:35:05.465Z,86.12
2022-10-25T03:36:05.474Z,86.12
2022-10-25T03:37:05.467Z,86.12
2022-10-25T03:38:05.464Z,86.12
2022-10-25T03:39:05.462Z,86.12
2022-10-25T03:40:05.465Z,86.12
2022-10-25T03:41:05.459Z,86.12
2022-10-25T03:42:05.478Z,86.12
2022-10-25T03:43:05.470Z,86.12
2022-10-25T03:44:05.468Z,86.12
2022-10-25T03:45:05.471Z,86.12
2022-10-25T03:46:05.477Z,86.12
2022-10-25T03:47:05.483Z,86.12
2022-10-25T03:48:05.465Z,86.12
2022-10-25T03:49:05.465Z,86.12
2022-10-25T03:50:05.480Z,86.12
2022-10-25T03:51:05.469Z,86.12
2022-10-25T03:52:05.475Z,86.12
2022-10-25T03:53:05.524Z,86.12
2022-10-25T03:54:05.476Z,86.12
2022-10-25T03:55:05.470Z,86.12
2022-10-25T03:56:05.481Z,86.12
2022-10-25T03:57:05.471Z,86.12
2022-10-25T03:58:05.465Z,86.12
2022-10-25T03:59:05.478Z,86.12
2022-10-25T04:00:05.484Z,86.12
2022-10-25T04:01:05.590Z,86.12
2022-10-25T04:02:05.530Z,86.12
2022-10-25T04:04:05.472Z,86.12
2022-10-25T04:05:05.470Z,86.12
2022-10-25T04:06:05.479Z,86.12
2022-10-25T04:07:05.476Z,86.12
2022-10-25T04:08:05.490Z,86.12
2022-10-25T04:09:05.482Z,86.12
2022-10-25T04:10:05.478Z,86.12
2022-10-25T04:11:05.479Z,86.12
2022-10-25T04:12:05.483Z,86.12
2022-10-25T04:13:05.478Z,86.12
2022-10-25T04:14:05.482Z,86.12
2022-10-25T04:15:05.478Z,86.12
2022-10-25T04:16:05.488Z,86.12
2022-10-25T04:17:05.484Z,86.12
2022-10-25T04:18:05.476Z,86.12
2022-10-25T04:19:05.990Z,86.12
2022-10-25T04:20:05.482Z,86.12
2022-10-25T04:21:05.488Z,86.12
2022-10-25T04:22:05.490Z,86.12
2022-10-25T04:23:05.494Z,86.12
2022-10-25T04:24:05.486Z,86.12
2022-10-25T04:25:05.505Z,86.12
2022-10-25T04:26:05.487Z,86.12
2022-10-25T04:27:05.489Z,86.12
2022-10-25T04:28:05.492Z,86.12
2022-10-25T04:29:05.490Z,86.12
2022-10-25T04:30:05.481Z,86.12
2022-10-25T04:31:05.489Z,86.12
2022-10-25T04:32:05.546Z,86.12
2022-10-25T04:33:05.482Z,86.12
2022-10-25T04:34:05.484Z,86.12
2022-10-25T04:35:05.517Z,86.12
2022-10-25T04:36:05.488Z,86.12
2022-10-25T04:37:05.487Z,86.12
2022-10-25T04:38:05.491Z,86.12
2022-10-25T04:39:05.484Z,86.12
2022-10-25T04:40:05.486Z,86.12
2022-10-25T04:41:05.483Z,86.12
2022-10-25T04:42:05.518Z,86.12
2022-10-25T04:43:05.486Z,86.12
2022-10-25T04:44:05.491Z,86.12
2022-10-25T04:45:05.484Z,86.12
2022-10-25T04:46:05.491Z,86.12
2022-10-25T04:47:05.492Z,86.12
2022-10-25T04:48:05.501Z,86.12
2022-10-25T04:49:05.496Z,86.12
2022-10-25T04:50:05.498Z,86.12
2022-10-25T04:51:05.530Z,86.12
2022-10-25T04:52:05.502Z,86.12
2022-10-25T04:53:05.497Z,86.12
2022-10-25T04:54:05.502Z,86.12
2022-10-25T04:55:05.510Z,86.12
2022-10-25T04:56:05.508Z,86.12
2022-10-25T04:57:05.512Z,86.12
2022-10-25T04:58:05.508Z,86.12
2022-10-25T04:59:05.515Z,86.12
2022-10-25T05:00:05.505Z,86.12
2022-10-25T05:01:05.566Z,86.12
2022-10-25T05:02:05.521Z,86.12
2022-10-25T05:03:08.266Z,86.12
2022-10-25T05:04:05.510Z,86.12
2022-10-25T05:05:05.520Z,86.12
2022-10-25T05:06:05.513Z,86.12
2022-10-25T05:07:05.545Z,86.12
2022-10-25T05:08:05.513Z,86.12
2022-10-25T05:09:05.518Z,86.12
2022-10-25T05:10:05.523Z,86.12
2022-10-25T05:11:05.514Z,86.12
2022-10-25T05:12:05.520Z,86.12
2022-10-25T05:13:05.523Z,86.12
2022-10-25T05:14:05.517Z,86.12
2022-10-25T05:15:05.518Z,86.12
2022-10-25T05:16:05.520Z,86.12
2022-10-25T05:17:05.531Z,86.12
2022-10-25T05:18:05.523Z,86.12
2022-10-25T05:19:05.528Z,86.12
2022-10-25T05:20:05.528Z,86.12
2022-10-25T05:21:05.532Z,86.12
2022-10-25T05:22:05.530Z,86.12
2022-10-25T05:23:05.560Z,86.12
2022-10-25T05:24:05.531Z,86.12
2022-10-25T05:25:05.530Z,86.12
2022-10-25T05:26:05.536Z,86.12
2022-10-25T05:27:05.536Z,86.12
2022-10-25T05:28:05.545Z,86.12
2022-10-25T05:29:09.325Z,86.12
2022-10-25T05:30:05.542Z,86.12
2022-10-25T05:31:05.577Z,86.12
2022-10-25T05:32:05.547Z,86.12
2022-10-25T05:33:05.552Z,86.12
2022-10-25T05:34:05.550Z,86.12
2022-10-25T05:35:05.546Z,86.12
2022-10-25T05:36:05.553Z,86.12
2022-10-25T05:37:05.552Z,86.12
2022-10-25T05:38:05.548Z,86.12
2022-10-25T05:39:05.577Z,86.12
2022-10-25T05:40:05.542Z,86.12
2022-10-25T05:41:05.556Z,86.12
2022-10-25T05:42:05.551Z,86.12
2022-10-25T05:43:05.562Z,86.12
2022-10-25T05:44:05.556Z,86.12
2022-10-25T05:45:05.556Z,86.12
2022-10-25T05:46:05.573Z,86.12
2022-10-25T05:47:05.566Z,86.12
2022-10-25T05:48:05.557Z,86.12
2022-10-25T05:49:05.576Z,86.12
2022-10-25T05:50:05.562Z,86.12
2022-10-25T05:51:08.553Z,86.12
2022-10-25T05:52:05.574Z,86.12
2022-10-25T05:53:05.567Z,86.12
2022-10-25T05:54:05.564Z,86.12
2022-10-25T05:55:05.598Z,86.12
2022-10-25T05:56:05.570Z,86.12
2022-10-25T05:57:05.581Z,86.12
2022-10-25T05:58:05.577Z,86.12
2022-10-25T05:59:05.579Z,86.12
2022-10-25T06:00:05.581Z,86.12
2022-10-25T06:01:05.640Z,86.12
2022-10-25T06:02:05.701Z,86.12
2022-10-25T06:03:05.593Z,86.12
2022-10-25T06:04:05.584Z,86.12
2022-10-25T06:05:05.587Z,86.12
2022-10-25T06:06:05.580Z,86.12
2022-10-25T06:07:05.586Z,86.12
2022-10-25T06:08:05.579Z,86.12
2022-10-25T06:09:05.584Z,86.12
2022-10-25T06:10:09.650Z,86.12
2022-10-25T06:11:05.610Z,86.12
2022-10-25T06:12:06.192Z,86.12
2022-10-25T06:13:05.585Z,86.12
2022-10-25T06:14:05.587Z,86.12
2022-10-25T06:15:05.584Z,86.12
2022-10-25T06:16:05.588Z,86.12
2022-10-25T06:17:05.593Z,86.12
2022-10-25T06:18:05.596Z,86.12
2022-10-25T06:19:05.599Z,86.12
2022-10-25T06:20:05.597Z,86.12
2022-10-25T06:21:05.604Z,86.12
2022-10-25T06:22:05.603Z,86.12
2022-10-25T06:23:06.971Z,86.12
2022-10-25T06:24:05.605Z,86.12
2022-10-25T06:25:05.600Z,86.12
2022-10-25T06:26:05.610Z,86.12
2022-10-25T06:27:05.646Z,86.12
2022-10-25T06:28:05.606Z,86.12
2022-10-25T06:29:05.608Z,86.12
2022-10-25T06:30:05.614Z,86.12
2022-10-25T06:31:05.613Z,86.12
2022-10-25T06:32:05.615Z,86.12
2022-10-25T06:33:05.615Z,86.12
2022-10-25T06:34:05.619Z,86.12
2022-10-25T06:35:05.616Z,86.12
2022-10-25T06:36:05.620Z,86.12
2022-10-25T06:37:05.618Z,86.12
2022-10-25T06:38:05.631Z,86.12
2022-10-25T06:39:07.021Z,86.12
2022-10-25T06:40:05.631Z,86.12
2022-10-25T06:41:05.622Z,86.12
2022-10-25T06:42:05.630Z,86.12
2022-10-25T06:43:05.655Z,86.12
2022-10-25T06:44:06.573Z,86.12
2022-10-25T06:45:05.637Z,86.12
2022-10-25T06:46:05.632Z,86.12
2022-10-25T06:47:16.775Z,86.12
2022-10-25T06:48:05.642Z,86.12
2022-10-25T06:49:05.640Z,86.12
2022-10-25T06:50:05.654Z,86.12
2022-10-25T06:51:05.641Z,86.12
2022-10-25T06:52:05.640Z,86.12
2022-10-25T06:53:05.646Z,86.12
2022-10-25T06:54:05.638Z,86.12
2022-10-25T06:55:05.649Z,86.12
2022-10-25T06:56:05.985Z,86.12
2022-10-25T06:57:05.640Z,86.12
2022-10-25T06:58:05.642Z,86.12
2022-10-25T06:59:05.683Z,86.12
2022-10-25T07:00:05.660Z,86.12
2022-10-25T07:01:05.802Z,86.12
2022-10-25T07:02:05.904Z,86.12
2022-10-25T07:03:05.658Z,86.12
2022-10-25T07:04:05.654Z,86.12
2022-10-25T07:05:05.664Z,86.12
2022-10-25T07:06:05.658Z,86.12
2022-10-25T07:07:05.666Z,86.12
2022-10-25T07:08:05.670Z,86.12
2022-10-25T07:09:05.671Z,86.12
2022-10-25T07:10:05.668Z,86.12
2022-10-25T07:11:05.676Z,86.12
2022-10-25T07:12:08.772Z,86.12
2022-10-25T07:13:05.659Z,86.12
2022-10-25T07:14:05.665Z,86.12
2022-10-25T07:15:05.693Z,86.12
2022-10-25T07:16:05.680Z,86.12
2022-10-25T07:17:05.673Z,86.12
2022-10-25T07:18:05.675Z,86.12
2022-10-25T07:19:05.678Z,86.12
2022-10-25T07:20:05.682Z,86.12
2022-10-25T07:21:05.679Z,86.12
2022-10-25T07:22:05.687Z,86.12
2022-10-25T07:23:08.670Z,86.12
2022-10-25T07:24:05.683Z,86.12
2022-10-25T07:25:05.791Z,86.12
2022-10-25T07:26:05.684Z,86.12
2022-10-25T07:27:05.682Z,86.12
2022-10-25T07:28:05.685Z,86.12
2022-10-25T07:29:05.677Z,86.12
2022-10-25T07:30:05.680Z,86.12
2022-10-25T07:31:05.708Z,86.12
2022-10-25T07:32:05.679Z,86.12
2022-10-25T07:33:05.688Z,86.12
2022-10-25T07:34:05.685Z,86.12
2022-10-25T07:35:05.686Z,86.12
2022-10-25T07:36:06.426Z,86.12
2022-10-25T07:37:05.686Z,86.12
2022-10-25T07:38:05.692Z,86.12
2022-10-25T07:39:05.689Z,86.12
2022-10-25T07:40:05.698Z,86.12
2022-10-25T07:41:05.697Z,86.12
2022-10-25T07:42:05.710Z,86.12
2022-10-25T07:43:05.689Z,86.12
2022-10-25T07:44:05.715Z,86.12
2022-10-25T07:45:05.697Z,86.12
2022-10-25T07:46:05.693Z,86.12
2022-10-25T07:47:05.720Z,86.12
2022-10-25T07:48:05.705Z,86.12
2022-10-25T07:49:05.699Z,86.12
2022-10-25T07:50:05.699Z,86.12
2022-10-25T07:51:05.712Z,86.12
2022-10-25T07:52:05.711Z,86.12
2022-10-25T07:53:05.707Z,86.12
2022-10-25T07:54:05.697Z,86.12
2022-10-25T07:55:05.708Z,86.12
2022-10-25T07:56:05.714Z,86.12
2022-10-25T07:57:05.707Z,86.12
2022-10-25T07:58:05.708Z,86.12
2022-10-25T07:59:05.714Z,86.12
2022-10-25T08:00:05.698Z,86.12
2022-10-25T08:01:05.768Z,86.12
2022-10-25T08:02:05.715Z,86.12
2022-10-25T08:03:05.794Z,86.12
2022-10-25T08:04:05.721Z,86.12
2022-10-25T08:05:05.724Z,86.12
2022-10-25T08:06:05.710Z,86.12
2022-10-25T08:07:05.722Z,86.12
2022-10-25T08:08:05.725Z,86.12
2022-10-25T08:09:09.884Z,86.12
2022-10-25T08:10:05.714Z,86.12
2022-10-25T08:11:05.725Z,86.12
2022-10-25T08:12:05.721Z,86.12
2022-10-25T08:13:05.735Z,86.12
2022-10-25T08:14:05.724Z,86.12
2022-10-25T08:15:05.738Z,86.12
2022-10-25T08:16:05.727Z,86.12
2022-10-25T08:17:05.734Z,86.12
2022-10-25T08:18:05.730Z,86.12
2022-10-25T08:19:05.762Z,86.12
2022-10-25T08:20:05.724Z,86.12
2022-10-25T08:21:05.729Z,86.12
2022-10-25T08:22:05.734Z,86.12
2022-10-25T08:23:05.731Z,86.12
2022-10-25T08:24:05.738Z,86.12
2022-10-25T08:25:05.727Z,86.12
2022-10-25T08:26:05.736Z,86.12
2022-10-25T08:27:05.736Z,86.12
2022-10-25T08:28:05.726Z,86.12
2022-10-25T08:29:05.737Z,86.12
2022-10-25T08:30:05.725Z,86.12
2022-10-25T08:31:05.759Z,86.12
2022-10-25T08:32:05.742Z,86.12
2022-10-25T08:33:08.225Z,86.12
2022-10-25T08:34:05.783Z,86.12
2022-10-25T08:35:05.765Z,86.12
2022-10-25T08:36:05.744Z,86.12
2022-10-25T08:37:05.743Z,86.12
2022-10-25T08:38:05.737Z,86.12
2022-10-25T08:39:05.733Z,86.12
2022-10-25T08:40:05.738Z,86.12
2022-10-25T08:41:05.746Z,86.12
2022-10-25T08:42:05.742Z,86.12
2022-10-25T08:43:05.747Z,86.12
2022-10-25T08:44:05.792Z,86.12
2022-10-25T08:45:05.726Z,86.12
2022-10-25T08:46:05.738Z,86.12
2022-10-25T08:47:05.744Z,86.12
2022-10-25T08:48:05.742Z,86.12
2022-10-25T08:49:05.748Z,86.12
2022-10-25T08:50:05.749Z,86.12
2022-10-25T08:51:05.815Z,86.12
2022-10-25T08:52:05.740Z,169.41
2022-10-25T08:53:05.746Z,170.82
2022-10-25T08:54:05.745Z,153.88
2022-10-25T08:55:05.950Z,153.88
2022-10-25T08:56:15.948Z,194.82
2022-10-25T08:57:19.821Z,190.59
2022-10-25T08:58:05.739Z,183.53
2022-10-25T08:59:05.753Z,127.06
2022-10-25T09:00:05.754Z,203.29
2022-10-25T09:01:05.906Z,151.06
2022-10-25T09:02:05.851Z,187.76
2022-10-25T09:03:05.756Z,152.47
2022-10-25T09:04:05.761Z,136.94
2022-10-25T09:05:05.756Z,136.94
2022-10-25T09:06:05.744Z,197.65
2022-10-25T09:07:05.771Z,216
2022-10-25T09:08:05.754Z,237.18
2022-10-25T09:09:05.752Z,223.06
2022-10-25T09:10:05.753Z,184.94
2022-10-25T09:11:05.752Z,179.29
2022-10-25T09:12:05.747Z,170.82
2022-10-25T09:13:07.031Z,237.18
2022-10-25T09:14:05.753Z,194.82
2022-10-25T09:15:05.762Z,220.24
2022-10-25T09:16:05.753Z,223.06
2022-10-25T09:17:05.757Z,241.41
2022-10-25T09:18:05.758Z,211.76
2022-10-25T09:19:05.755Z,225.88
2022-10-25T09:20:05.761Z,225.88
2022-10-25T09:21:08.692Z,225.88
2022-10-25T09:22:05.755Z,220.24
2022-10-25T09:23:05.782Z,220.24
2022-10-25T09:24:05.764Z,220.24
2022-10-25T09:25:05.773Z,220.24
2022-10-25T09:26:05.761Z,220.24
2022-10-25T09:27:05.777Z,220.24
2022-10-25T09:28:05.769Z,220.24
2022-10-25T09:29:05.776Z,220.24
2022-10-25T09:30:07.377Z,220.24
2022-10-25T09:31:05.773Z,220.24
2022-10-25T09:32:05.775Z,220.24
2022-10-25T09:33:05.825Z,220.24
2022-10-25T09:34:05.774Z,220.24
2022-10-25T09:35:05.777Z,220.24
2022-10-25T09:36:05.770Z,220.24
2022-10-25T09:37:05.771Z,220.24
2022-10-25T09:38:05.785Z,220.24
2022-10-25T09:39:05.803Z,220.24
2022-10-25T09:40:05.778Z,220.24
2022-10-25T09:41:05.780Z,220.24
2022-10-25T09:42:05.777Z,220.24
2022-10-25T09:44:05.795Z,278.12
2022-10-25T09:45:05.788Z,293.65
2022-10-25T09:46:05.791Z,273.88
2022-10-25T09:47:05.794Z,283.76
2022-10-25T09:48:05.793Z,290.82
2022-10-25T09:49:05.800Z,285.18
2022-10-25T09:50:05.784Z,272.47
2022-10-25T09:51:05.799Z,216
2022-10-25T09:52:05.801Z,201.88
2022-10-25T09:53:05.803Z,259.76
2022-10-25T09:54:05.808Z,216
2022-10-25T09:55:05.828Z,276.71
2022-10-25T09:56:05.803Z,279.53
2022-10-25T09:57:05.809Z,302.12
2022-10-25T09:58:05.813Z,247.06
2022-10-25T09:59:05.818Z,247.06
2022-10-25T10:00:05.814Z,247.06
2022-10-25T10:01:05.885Z,247.06
2022-10-25T10:02:05.887Z,247.06
2022-10-25T10:03:05.870Z,247.06
2022-10-25T10:04:05.812Z,247.06
2022-10-25T10:05:05.814Z,286.59
2022-10-25T10:06:05.829Z,273.88
2022-10-25T10:07:05.824Z,22.59
2022-10-25T10:08:05.822Z,304.94
2022-10-25T10:09:05.811Z,273.88
2022-10-25T10:10:05.816Z,273.88
2022-10-25T10:11:05.850Z,278.12
2022-10-25T10:12:05.818Z,249.88
2022-10-25T10:13:05.845Z,278.12
2022-10-25T10:14:07.489Z,266.82
2022-10-25T10:15:05.840Z,286.59
2022-10-25T10:16:05.822Z,296.47
2022-10-25T10:17:05.828Z,276.71
2022-10-25T10:18:05.836Z,276.71
2022-10-25T10:19:05.838Z,292.24
2022-10-25T10:20:05.829Z,273.88
2022-10-25T10:21:05.838Z,247.06
2022-10-25T10:22:05.848Z,254.12
2022-10-25T10:23:06.425Z,247.06
2022-10-25T10:24:05.844Z,241.41
2022-10-25T10:25:05.848Z,258.35
2022-10-25T10:26:05.848Z,237.18
2022-10-25T10:27:05.868Z,237.18
2022-10-25T10:28:05.850Z,237.18
2022-10-25T10:29:07.775Z,255.53
2022-10-25T10:30:05.850Z,264
2022-10-25T10:31:05.852Z,268.24
2022-10-25T10:32:05.844Z,272.47
2022-10-25T10:33:05.854Z,273.88
2022-10-25T10:34:05.851Z,262.59
2022-10-25T10:35:05.850Z,268.24
2022-10-25T10:36:05.853Z,296.47
2022-10-25T10:37:05.860Z,297.88
2022-10-25T10:38:05.845Z,292.24
2022-10-25T10:39:05.854Z,295.06
2022-10-25T10:40:05.858Z,290.82
2022-10-25T10:41:05.856Z,279.53
2022-10-25T10:42:05.852Z,200.47
2022-10-25T10:43:05.890Z,225.88
2022-10-25T10:44:05.896Z,225.88
2022-10-25T10:45:05.852Z,200.47
2022-10-25T10:46:05.853Z,200.47
2022-10-25T10:47:05.863Z,200.47
2022-10-25T10:48:05.862Z,200.47
2022-10-25T10:49:05.859Z,200.47
2022-10-25T10:50:05.861Z,200.47
2022-10-25T10:51:08.996Z,295.06
2022-10-25T10:52:05.874Z,265.41
2022-10-25T10:53:05.870Z,283.76
2022-10-25T10:54:05.888Z,299.29
2022-10-25T10:55:05.877Z,300.71
2022-10-25T10:56:05.867Z,245.65
2022-10-25T10:57:05.878Z,166.59
2022-10-25T10:58:05.881Z,144
2022-10-25T10:59:05.898Z,144
2022-10-25T11:00:05.882Z,144
2022-10-25T11:01:05.978Z,144
2022-10-25T11:02:05.985Z,144
2022-10-25T11:03:05.896Z,264
2022-10-25T11:04:05.883Z,231.53
2022-10-25T11:05:05.888Z,231.53
2022-10-25T11:06:05.881Z,231.53
2022-10-25T11:07:05.893Z,231.53
2022-10-25T11:08:05.877Z,231.53
2022-10-25T11:09:05.891Z,266.82
2022-10-25T11:10:05.883Z,272.47
2022-10-25T11:11:05.894Z,259.76
2022-10-25T11:12:05.910Z,259.76
2022-10-25T11:13:05.902Z,210.35
2022-10-25T11:14:05.892Z,225.88
2022-10-25T11:15:06.013Z,208.94
2022-10-25T11:16:05.891Z,216
2022-10-25T11:17:05.890Z,210.35
2022-10-25T11:18:05.901Z,213.18
2022-10-25T11:19:05.891Z,232.94
2022-10-25T11:20:05.895Z,232.94
2022-10-25T11:21:05.905Z,232.94
2022-10-25T11:22:05.902Z,232.94
2022-10-25T11:23:05.918Z,232.94
2022-10-25T11:24:05.899Z,183.53
2022-10-25T11:25:05.908Z,189.18
2022-10-25T11:26:05.896Z,189.18
2022-10-25T11:27:05.902Z,293.65
2022-10-25T11:28:05.909Z,275.29
2022-10-25T11:29:05.902Z,275.29
2022-10-25T11:30:05.925Z,218.82
2022-10-25T11:31:06.013Z,227.29
2022-10-25T11:32:05.913Z,227.29
2022-10-25T11:33:05.916Z,227.29
2022-10-25T11:34:06.677Z,227.29
2022-10-25T11:35:05.917Z,227.29
2022-10-25T11:36:05.920Z,227.29
2022-10-25T11:37:05.916Z,227.29
2022-10-25T11:38:05.914Z,227.29
2022-10-25T11:39:05.915Z,227.29
2022-10-25T11:40:05.903Z,227.29
2022-10-25T11:41:05.917Z,238.59
2022-10-25T11:42:05.917Z,279.53
2022-10-25T11:43:05.924Z,240
2022-10-25T11:44:05.905Z,259.76
2022-10-25T11:45:05.919Z,208.94
2022-10-25T11:46:05.914Z,208.94
2022-10-25T11:47:06.033Z,216
2022-10-25T11:48:05.913Z,166.59
2022-10-25T11:49:05.921Z,196.24
2022-10-25T11:50:05.920Z,273.88
2022-10-25T11:51:05.922Z,297.88
2022-10-25T11:52:05.993Z,259.76
2022-10-25T11:53:05.925Z,230.12
2022-10-25T11:54:05.931Z,196.24
2022-10-25T11:55:05.934Z,196.24
2022-10-25T11:56:05.929Z,196.24
2022-10-25T11:57:05.933Z,180.71
2022-10-25T11:58:07.849Z,256.94
2022-10-25T11:59:05.931Z,238.59
2022-10-25T12:00:05.937Z,238.59
2022-10-25T12:01:05.997Z,238.59
2022-10-25T12:02:05.935Z,238.59
2022-10-25T12:03:06.123Z,238.59
2022-10-25T12:04:05.933Z,238.59
2022-10-25T12:05:05.937Z,238.59
2022-10-25T12:06:05.941Z,238.59
2022-10-25T12:07:05.954Z,238.59
2022-10-25T12:08:05.943Z,192
2022-10-25T12:09:05.942Z,249.88
2022-10-25T12:10:05.960Z,269.65
2022-10-25T12:11:05.948Z,230.12
2022-10-25T12:12:05.945Z,217.41
2022-10-25T12:13:05.938Z,227.29
2022-10-25T12:14:05.944Z,218.82
2022-10-25T12:15:05.951Z,245.65
2022-10-25T12:16:05.947Z,248.47
2022-10-25T12:17:05.946Z,248.47
2022-10-25T12:18:05.938Z,248.47
2022-10-25T12:19:06.072Z,248.47
2022-10-25T12:20:05.950Z,248.47
2022-10-25T12:21:05.955Z,248.47
2022-10-25T12:22:05.943Z,248.47
2022-10-25T12:23:05.948Z,248.47
2022-10-25T12:24:05.945Z,248.47
2022-10-25T12:25:05.950Z,272.47
2022-10-25T12:26:05.947Z,273.88
2022-10-25T12:27:05.966Z,278.12
2022-10-25T12:28:05.951Z,296.47
2022-10-25T12:29:05.960Z,221.65
2022-10-25T12:30:05.957Z,221.65
2022-10-25T12:31:05.954Z,262.59
2022-10-25T12:32:05.962Z,235.76
2022-10-25T12:33:05.965Z,235.76
2022-10-25T12:34:05.965Z,235.76
2022-10-25T12:35:06.079Z,235.76
2022-10-25T12:36:05.968Z,235.76
2022-10-25T12:37:05.970Z,235.76
2022-10-25T12:38:05.967Z,235.76
2022-10-25T12:39:05.974Z,235.76
2022-10-25T12:40:05.975Z,214.59
2022-10-25T12:41:05.980Z,214.59
2022-10-25T12:42:05.976Z,218.82
2022-10-25T12:43:05.985Z,216
2022-10-25T12:44:05.977Z,225.88
2022-10-25T12:45:05.987Z,218.82
2022-10-25T12:46:05.982Z,225.88
2022-10-25T12:47:05.985Z,225.88
2022-10-25T12:48:05.983Z,225.88
2022-10-25T12:49:05.979Z,225.88